sensor_id;sensor_type;location;lat;lon;timestamp;temperature;humidity
71175;DHT22;58876;51.994;4.472;2023-06-22T00:01:54;20.03;70.21
71175;DHT22;58876;51.994;4.472;2023-06-22T00:04:20;20.00;69.20
71175;DHT22;58876;51.994;4.472;2023-06-22T00:06:45;20.00;69.63
71175;DHT22;58876;51.994;4.472;2023-06-22T00:09:11;20.00;70.67
71175;DHT22;58876;51.994;4.472;2023-06-22T00:11:37;19.98;70.59
71175;DHT22;58876;51.994;4.472;2023-06-22T00:14:04;19.93;70.48
71175;DHT22;58876;51.994;4.472;2023-06-22T00:16:31;19.88;70.13
71175;DHT22;58876;51.994;4.472;2023-06-22T00:18:57;19.87;69.45
71175;DHT22;58876;51.994;4.472;2023-06-22T00:21:26;19.87;69.54
71175;DHT22;58876;51.994;4.472;2023-06-22T00:23:51;19.83;69.27
71175;DHT22;58876;51.994;4.472;2023-06-22T00:26:17;19.83;69.87
71175;DHT22;58876;51.994;4.472;2023-06-22T00:28:42;19.83;70.32
71175;DHT22;58876;51.994;4.472;2023-06-22T00:31:08;19.79;70.53
71175;DHT22;58876;51.994;4.472;2023-06-22T00:33:33;19.79;70.52
71175;DHT22;58876;51.994;4.472;2023-06-22T00:35:59;19.76;71.16
71175;DHT22;58876;51.994;4.472;2023-06-22T00:38:24;19.77;71.11
71175;DHT22;58876;51.994;4.472;2023-06-22T00:40:50;19.71;72.52
71175;DHT22;58876;51.994;4.472;2023-06-22T00:43:15;19.70;72.23
71175;DHT22;58876;51.994;4.472;2023-06-22T00:45:41;19.71;72.61
71175;DHT22;58876;51.994;4.472;2023-06-22T00:48:07;19.70;72.85
71175;DHT22;58876;51.994;4.472;2023-06-22T00:50:34;19.69;72.51
71175;DHT22;58876;51.994;4.472;2023-06-22T00:53:06;19.70;72.54
71175;DHT22;58876;51.994;4.472;2023-06-22T00:55:41;19.67;72.16
71175;DHT22;58876;51.994;4.472;2023-06-22T00:58:09;19.63;71.78
71175;DHT22;58876;51.994;4.472;2023-06-22T01:00:37;19.57;71.44
71175;DHT22;58876;51.994;4.472;2023-06-22T01:03:03;19.56;70.89
71175;DHT22;58876;51.994;4.472;2023-06-22T01:05:31;19.52;71.28
71175;DHT22;58876;51.994;4.472;2023-06-22T01:08:07;19.53;72.09
71175;DHT22;58876;51.994;4.472;2023-06-22T01:13:35;19.53;73.93
71175;DHT22;58876;51.994;4.472;2023-06-22T01:16:10;19.50;74.00
71175;DHT22;58876;51.994;4.472;2023-06-22T01:18:42;19.50;74.12
71175;DHT22;58876;51.994;4.472;2023-06-22T01:21:13;19.50;74.53
71175;DHT22;58876;51.994;4.472;2023-06-22T01:29:04;19.39;74.73
71175;DHT22;58876;51.994;4.472;2023-06-22T01:31:33;19.35;74.07
71175;DHT22;58876;51.994;4.472;2023-06-22T01:34:03;19.33;74.09
71175;DHT22;58876;51.994;4.472;2023-06-22T01:36:32;19.29;74.64
71175;DHT22;58876;51.994;4.472;2023-06-22T01:38:59;19.28;74.48
71175;DHT22;58876;51.994;4.472;2023-06-22T01:41:26;19.29;74.36
71175;DHT22;58876;51.994;4.472;2023-06-22T01:43:54;19.26;74.13
71175;DHT22;58876;51.994;4.472;2023-06-22T01:46:21;19.22;73.53
71175;DHT22;58876;51.994;4.472;2023-06-22T01:48:48;19.16;73.37
71175;DHT22;58876;51.994;4.472;2023-06-22T01:51:14;19.19;73.79
71175;DHT22;58876;51.994;4.472;2023-06-22T01:53:40;19.19;75.16
71175;DHT22;58876;51.994;4.472;2023-06-22T01:56:05;19.12;74.40
71175;DHT22;58876;51.994;4.472;2023-06-22T01:58:31;19.05;74.87
71175;DHT22;58876;51.994;4.472;2023-06-22T02:01:09;19.05;74.41
71175;DHT22;58876;51.994;4.472;2023-06-22T02:03:43;19.07;74.11
71175;DHT22;58876;51.994;4.472;2023-06-22T02:06:20;19.02;74.07
71175;DHT22;58876;51.994;4.472;2023-06-22T02:08:50;19.02;74.04
71175;DHT22;58876;51.994;4.472;2023-06-22T02:11:19;18.98;74.11
71175;DHT22;58876;51.994;4.472;2023-06-22T02:13:46;18.95;73.32
71175;DHT22;58876;51.994;4.472;2023-06-22T02:16:13;18.88;73.26
71175;DHT22;58876;51.994;4.472;2023-06-22T02:18:46;18.90;73.61
71175;DHT22;58876;51.994;4.472;2023-06-22T02:21:12;18.88;73.73
71175;DHT22;58876;51.994;4.472;2023-06-22T02:23:37;18.85;73.28
71175;DHT22;58876;51.994;4.472;2023-06-22T02:26:03;18.84;73.93
71175;DHT22;58876;51.994;4.472;2023-06-22T02:28:28;18.81;73.88
71175;DHT22;58876;51.994;4.472;2023-06-22T02:30:54;18.80;73.92
71175;DHT22;58876;51.994;4.472;2023-06-22T02:33:19;18.77;73.97
71175;DHT22;58876;51.994;4.472;2023-06-22T02:35:45;18.77;74.49
71175;DHT22;58876;51.994;4.472;2023-06-22T02:38:14;18.77;74.51
71175;DHT22;58876;51.994;4.472;2023-06-22T02:40:39;18.75;75.16
71175;DHT22;58876;51.994;4.472;2023-06-22T02:43:05;18.77;74.59
71175;DHT22;58876;51.994;4.472;2023-06-22T02:45:30;18.74;74.92
71175;DHT22;58876;51.994;4.472;2023-06-22T02:47:56;18.78;75.41
71175;DHT22;58876;51.994;4.472;2023-06-22T02:50:22;18.80;75.70
71175;DHT22;58876;51.994;4.472;2023-06-22T02:52:47;18.81;75.97
71175;DHT22;58876;51.994;4.472;2023-06-22T02:55:13;18.83;76.21
71175;DHT22;58876;51.994;4.472;2023-06-22T02:57:38;18.83;76.39
71175;DHT22;58876;51.994;4.472;2023-06-22T03:00:09;18.80;76.16
71175;DHT22;58876;51.994;4.472;2023-06-22T03:02:48;18.81;76.22
71175;DHT22;58876;51.994;4.472;2023-06-22T03:05:15;18.84;76.75
71175;DHT22;58876;51.994;4.472;2023-06-22T03:07:44;18.78;75.95
71175;DHT22;58876;51.994;4.472;2023-06-22T03:10:11;18.75;75.70
71175;DHT22;58876;51.994;4.472;2023-06-22T03:12:38;18.71;75.57
71175;DHT22;58876;51.994;4.472;2023-06-22T03:15:08;18.64;74.98
71175;DHT22;58876;51.994;4.472;2023-06-22T03:17:35;18.67;75.43
71175;DHT22;58876;51.994;4.472;2023-06-22T03:20:01;18.63;74.82
71175;DHT22;58876;51.994;4.472;2023-06-22T03:22:29;18.60;74.86
71175;DHT22;58876;51.994;4.472;2023-06-22T03:24:54;18.60;75.14
71175;DHT22;58876;51.994;4.472;2023-06-22T03:27:20;18.60;75.45
71175;DHT22;58876;51.994;4.472;2023-06-22T03:29:45;18.56;75.04
71175;DHT22;58876;51.994;4.472;2023-06-22T03:32:11;18.56;75.44
71175;DHT22;58876;51.994;4.472;2023-06-22T03:34:36;18.61;75.85
71175;DHT22;58876;51.994;4.472;2023-06-22T03:37:02;18.64;76.07
71175;DHT22;58876;51.994;4.472;2023-06-22T03:39:28;18.60;76.30
71175;DHT22;58876;51.994;4.472;2023-06-22T03:41:54;18.56;76.02
71175;DHT22;58876;51.994;4.472;2023-06-22T03:44:19;18.51;75.51
71175;DHT22;58876;51.994;4.472;2023-06-22T03:46:45;18.50;75.47
71175;DHT22;58876;51.994;4.472;2023-06-22T03:49:10;18.51;75.63
71175;DHT22;58876;51.994;4.472;2023-06-22T03:51:36;18.53;75.74
71175;DHT22;58876;51.994;4.472;2023-06-22T03:54:01;18.57;75.50
71175;DHT22;58876;51.994;4.472;2023-06-22T03:56:27;18.59;75.70
71175;DHT22;58876;51.994;4.472;2023-06-22T03:58:52;18.65;75.75
71175;DHT22;58876;51.994;4.472;2023-06-22T04:01:18;18.71;75.84
71175;DHT22;58876;51.994;4.472;2023-06-22T04:03:44;18.74;75.49
71175;DHT22;58876;51.994;4.472;2023-06-22T04:06:09;18.71;76.31
71175;DHT22;58876;51.994;4.472;2023-06-22T04:08:35;18.72;75.88
71175;DHT22;58876;51.994;4.472;2023-06-22T04:11:00;18.78;76.16
71175;DHT22;58876;51.994;4.472;2023-06-22T04:13:26;18.81;75.62
71175;DHT22;58876;51.994;4.472;2023-06-22T04:15:51;18.80;75.52
71175;DHT22;58876;51.994;4.472;2023-06-22T04:18:17;18.85;75.65
71175;DHT22;58876;51.994;4.472;2023-06-22T04:20:42;18.91;75.51
71175;DHT22;58876;51.994;4.472;2023-06-22T04:23:10;18.92;75.80
71175;DHT22;58876;51.994;4.472;2023-06-22T04:25:35;18.99;75.38
71175;DHT22;58876;51.994;4.472;2023-06-22T04:28:01;19.05;75.72
71175;DHT22;58876;51.994;4.472;2023-06-22T04:30:28;19.11;75.67
71175;DHT22;58876;51.994;4.472;2023-06-22T04:32:54;19.19;75.56
71175;DHT22;58876;51.994;4.472;2023-06-22T04:35:24;19.23;75.97
71175;DHT22;58876;51.994;4.472;2023-06-22T04:37:49;19.29;75.67
71175;DHT22;58876;51.994;4.472;2023-06-22T04:40:15;19.35;75.10
71175;DHT22;58876;51.994;4.472;2023-06-22T04:42:41;19.48;75.29
71175;DHT22;58876;51.994;4.472;2023-06-22T04:45:18;19.52;74.87
71175;DHT22;58876;51.994;4.472;2023-06-22T04:47:44;19.65;74.87
71175;DHT22;58876;51.994;4.472;2023-06-22T04:50:14;19.71;75.03
71175;DHT22;58876;51.994;4.472;2023-06-22T04:52:39;19.80;74.75
71175;DHT22;58876;51.994;4.472;2023-06-22T04:55:05;19.84;74.11
71175;DHT22;58876;51.994;4.472;2023-06-22T04:57:31;19.93;74.84
71175;DHT22;58876;51.994;4.472;2023-06-22T05:00:00;19.94;74.94
71175;DHT22;58876;51.994;4.472;2023-06-22T05:02:38;19.93;75.12
71175;DHT22;58876;51.994;4.472;2023-06-22T05:05:04;19.98;74.80
71175;DHT22;58876;51.994;4.472;2023-06-22T05:07:35;20.07;74.31
71175;DHT22;58876;51.994;4.472;2023-06-22T05:10:02;20.17;74.23
71175;DHT22;58876;51.994;4.472;2023-06-22T05:12:28;20.22;74.42
71175;DHT22;58876;51.994;4.472;2023-06-22T05:14:55;20.27;74.17
71175;DHT22;58876;51.994;4.472;2023-06-22T05:17:20;20.35;74.14
71175;DHT22;58876;51.994;4.472;2023-06-22T05:19:46;20.45;74.02
71175;DHT22;58876;51.994;4.472;2023-06-22T05:22:17;20.56;73.54
71175;DHT22;58876;51.994;4.472;2023-06-22T05:24:43;20.69;73.55
71175;DHT22;58876;51.994;4.472;2023-06-22T05:27:09;20.69;72.97
71175;DHT22;58876;51.994;4.472;2023-06-22T05:29:36;20.76;72.94
71175;DHT22;58876;51.994;4.472;2023-06-22T05:32:02;20.80;73.16
71175;DHT22;58876;51.994;4.472;2023-06-22T05:34:28;20.85;73.01
71175;DHT22;58876;51.994;4.472;2023-06-22T05:36:54;20.87;72.70
71175;DHT22;58876;51.994;4.472;2023-06-22T05:39:19;20.93;72.29
71175;DHT22;58876;51.994;4.472;2023-06-22T05:41:46;20.96;72.72
71175;DHT22;58876;51.994;4.472;2023-06-22T05:44:11;20.99;72.50
71175;DHT22;58876;51.994;4.472;2023-06-22T05:46:41;20.99;72.46
71175;DHT22;58876;51.994;4.472;2023-06-22T05:49:10;21.02;72.00
71175;DHT22;58876;51.994;4.472;2023-06-22T05:51:35;21.08;71.94
71175;DHT22;58876;51.994;4.472;2023-06-22T05:54:01;21.13;71.94
71175;DHT22;58876;51.994;4.472;2023-06-22T05:56:26;21.14;71.94
71175;DHT22;58876;51.994;4.472;2023-06-22T05:58:52;21.24;71.49
71175;DHT22;58876;51.994;4.472;2023-06-22T06:01:17;21.31;71.55
71175;DHT22;58876;51.994;4.472;2023-06-22T06:03:43;21.43;71.09
71175;DHT22;58876;51.994;4.472;2023-06-22T06:06:09;21.51;71.15
71175;DHT22;58876;51.994;4.472;2023-06-22T06:08:39;21.62;70.99
71175;DHT22;58876;51.994;4.472;2023-06-22T06:11:05;21.79;70.70
71175;DHT22;58876;51.994;4.472;2023-06-22T06:13:30;21.86;69.77
71175;DHT22;58876;51.994;4.472;2023-06-22T06:15:56;21.94;69.81
71175;DHT22;58876;51.994;4.472;2023-06-22T06:18:22;22.01;69.48
71175;DHT22;58876;51.994;4.472;2023-06-22T06:20:48;22.01;69.36
71175;DHT22;58876;51.994;4.472;2023-06-22T06:23:13;22.06;69.56
71175;DHT22;58876;51.994;4.472;2023-06-22T06:25:39;22.16;69.03
71175;DHT22;58876;51.994;4.472;2023-06-22T06:28:04;22.20;68.81
71175;DHT22;58876;51.994;4.472;2023-06-22T06:30:30;22.13;69.67
71175;DHT22;58876;51.994;4.472;2023-06-22T06:32:56;22.15;69.98
71175;DHT22;58876;51.994;4.472;2023-06-22T06:35:22;22.25;69.44
71175;DHT22;58876;51.994;4.472;2023-06-22T06:37:49;22.36;69.28
71175;DHT22;58876;51.994;4.472;2023-06-22T06:40:17;22.49;68.55
71175;DHT22;58876;51.994;4.472;2023-06-22T06:42:44;22.53;68.88
71175;DHT22;58876;51.994;4.472;2023-06-22T06:47:36;22.71;68.50
71175;DHT22;58876;51.994;4.472;2023-06-22T06:50:03;22.86;68.25
71175;DHT22;58876;51.994;4.472;2023-06-22T06:52:29;23.01;68.03
71175;DHT22;58876;51.994;4.472;2023-06-22T06:54:54;23.15;67.30
71175;DHT22;58876;51.994;4.472;2023-06-22T06:57:20;23.21;67.45
71175;DHT22;58876;51.994;4.472;2023-06-22T06:59:46;23.31;67.22
71175;DHT22;58876;51.994;4.472;2023-06-22T07:02:11;23.46;66.64
71175;DHT22;58876;51.994;4.472;2023-06-22T07:04:37;23.63;66.24
71175;DHT22;58876;51.994;4.472;2023-06-22T07:07:02;23.84;65.53
71175;DHT22;58876;51.994;4.472;2023-06-22T07:09:28;24.17;64.97
71175;DHT22;58876;51.994;4.472;2023-06-22T07:11:54;24.34;62.98
71175;DHT22;58876;51.994;4.472;2023-06-22T07:14:19;24.51;61.86
71175;DHT22;58876;51.994;4.472;2023-06-22T07:16:45;24.72;62.25
71175;DHT22;58876;51.994;4.472;2023-06-22T07:19:12;24.89;60.87
71175;DHT22;58876;51.994;4.472;2023-06-22T07:21:38;24.96;60.51
71175;DHT22;58876;51.994;4.472;2023-06-22T07:24:05;24.96;60.27
71175;DHT22;58876;51.994;4.472;2023-06-22T07:26:31;25.00;59.12
71175;DHT22;58876;51.994;4.472;2023-06-22T07:28:57;25.19;60.09
71175;DHT22;58876;51.994;4.472;2023-06-22T07:31:24;25.47;58.94
71175;DHT22;58876;51.994;4.472;2023-06-22T07:33:50;25.61;57.51
71175;DHT22;58876;51.994;4.472;2023-06-22T07:36:17;25.60;56.30
71175;DHT22;58876;51.994;4.472;2023-06-22T07:38:42;25.75;56.60
71175;DHT22;58876;51.994;4.472;2023-06-22T07:41:08;25.91;56.74
71175;DHT22;58876;51.994;4.472;2023-06-22T07:43:34;26.12;55.46
71175;DHT22;58876;51.994;4.472;2023-06-22T07:46:03;26.28;53.00
71175;DHT22;58876;51.994;4.472;2023-06-22T07:48:29;26.50;52.84
71175;DHT22;58876;51.994;4.472;2023-06-22T07:50:55;26.59;53.01
71175;DHT22;58876;51.994;4.472;2023-06-22T07:53:22;27.24;51.60
71175;DHT22;58876;51.994;4.472;2023-06-22T07:55:48;27.92;49.11
71175;DHT22;58876;51.994;4.472;2023-06-22T07:58:14;28.33;48.08
71175;DHT22;58876;51.994;4.472;2023-06-22T08:00:40;28.65;46.82
71175;DHT22;58876;51.994;4.472;2023-06-22T08:03:06;29.25;44.72
71175;DHT22;58876;51.994;4.472;2023-06-22T08:05:32;29.92;42.68
71175;DHT22;58876;51.994;4.472;2023-06-22T08:07:58;30.09;42.64
71175;DHT22;58876;51.994;4.472;2023-06-22T08:10:23;30.08;42.44
71175;DHT22;58876;51.994;4.472;2023-06-22T08:12:49;30.31;42.73
71175;DHT22;58876;51.994;4.472;2023-06-22T08:15:14;30.45;41.19
71175;DHT22;58876;51.994;4.472;2023-06-22T08:17:40;30.56;42.09
71175;DHT22;58876;51.994;4.472;2023-06-22T08:20:07;30.84;41.85
71175;DHT22;58876;51.994;4.472;2023-06-22T08:22:36;31.10;42.39
71175;DHT22;58876;51.994;4.472;2023-06-22T08:25:03;31.08;40.39
71175;DHT22;58876;51.994;4.472;2023-06-22T08:27:30;31.24;41.33
71175;DHT22;58876;51.994;4.472;2023-06-22T08:30:00;31.16;40.86
71175;DHT22;58876;51.994;4.472;2023-06-22T08:32:29;31.30;40.46
71175;DHT22;58876;51.994;4.472;2023-06-22T08:34:56;31.55;38.56
71175;DHT22;58876;51.994;4.472;2023-06-22T08:37:23;31.08;39.31
71175;DHT22;58876;51.994;4.472;2023-06-22T08:39:59;31.20;39.36
71175;DHT22;58876;51.994;4.472;2023-06-22T08:42:25;31.17;39.37
71175;DHT22;58876;51.994;4.472;2023-06-22T08:44:51;30.91;40.22
71175;DHT22;58876;51.994;4.472;2023-06-22T08:47:16;31.01;40.66
71175;DHT22;58876;51.994;4.472;2023-06-22T08:49:42;31.20;41.07
71175;DHT22;58876;51.994;4.472;2023-06-22T08:52:07;31.27;40.87
71175;DHT22;58876;51.994;4.472;2023-06-22T08:54:33;31.47;40.07
71175;DHT22;58876;51.994;4.472;2023-06-22T08:57:00;31.55;38.56
71175;DHT22;58876;51.994;4.472;2023-06-22T08:59:26;31.64;39.16
71175;DHT22;58876;51.994;4.472;2023-06-22T09:01:51;31.35;38.88
71175;DHT22;58876;51.994;4.472;2023-06-22T09:04:17;31.04;39.90
71175;DHT22;58876;51.994;4.472;2023-06-22T09:06:42;31.06;40.39
71175;DHT22;58876;51.994;4.472;2023-06-22T09:09:16;30.29;43.39
71175;DHT22;58876;51.994;4.472;2023-06-22T09:11:41;29.51;45.29
71175;DHT22;58876;51.994;4.472;2023-06-22T09:14:08;29.34;45.44
71175;DHT22;58876;51.994;4.472;2023-06-22T09:16:34;29.60;44.27
71175;DHT22;58876;51.994;4.472;2023-06-22T09:19:00;29.77;44.38
71175;DHT22;58876;51.994;4.472;2023-06-22T09:21:25;29.92;44.05
71175;DHT22;58876;51.994;4.472;2023-06-22T09:23:51;30.21;42.78
71175;DHT22;58876;51.994;4.472;2023-06-22T09:26:17;30.02;43.18
71175;DHT22;58876;51.994;4.472;2023-06-22T09:28:43;29.81;45.19
71175;DHT22;58876;51.994;4.472;2023-06-22T09:31:09;29.90;45.04
71175;DHT22;58876;51.994;4.472;2023-06-22T09:33:35;29.82;43.31
71175;DHT22;58876;51.994;4.472;2023-06-22T09:36:01;29.50;44.38
71175;DHT22;58876;51.994;4.472;2023-06-22T09:38:26;29.40;44.72
71175;DHT22;58876;51.994;4.472;2023-06-22T09:40:52;29.46;44.10
71175;DHT22;58876;51.994;4.472;2023-06-22T09:43:17;29.22;45.58
71175;DHT22;58876;51.994;4.472;2023-06-22T09:45:43;29.22;44.71
71175;DHT22;58876;51.994;4.472;2023-06-22T09:48:08;29.20;45.90
71175;DHT22;58876;51.994;4.472;2023-06-22T09:50:35;29.33;45.03
71175;DHT22;58876;51.994;4.472;2023-06-22T09:53:02;29.29;45.15
71175;DHT22;58876;51.994;4.472;2023-06-22T09:55:28;29.27;46.26
71175;DHT22;58876;51.994;4.472;2023-06-22T09:57:53;29.22;45.07
71175;DHT22;58876;51.994;4.472;2023-06-22T10:00:21;29.18;45.53
71175;DHT22;58876;51.994;4.472;2023-06-22T10:02:47;29.26;45.56
71175;DHT22;58876;51.994;4.472;2023-06-22T10:05:13;29.29;45.30
71175;DHT22;58876;51.994;4.472;2023-06-22T10:07:38;28.92;44.79
71175;DHT22;58876;51.994;4.472;2023-06-22T10:10:08;28.81;45.22
71175;DHT22;58876;51.994;4.472;2023-06-22T10:12:33;28.71;46.37
71175;DHT22;58876;51.994;4.472;2023-06-22T10:14:59;28.36;48.46
71175;DHT22;58876;51.994;4.472;2023-06-22T10:17:24;28.47;47.94
71175;DHT22;58876;51.994;4.472;2023-06-22T10:19:50;28.54;46.67
71175;DHT22;58876;51.994;4.472;2023-06-22T10:22:15;28.62;47.06
71175;DHT22;58876;51.994;4.472;2023-06-22T10:24:41;28.55;47.13
71175;DHT22;58876;51.994;4.472;2023-06-22T10:27:12;28.52;47.19
71175;DHT22;58876;51.994;4.472;2023-06-22T10:29:39;28.47;47.58
71175;DHT22;58876;51.994;4.472;2023-06-22T10:32:05;28.44;47.00
71175;DHT22;58876;51.994;4.472;2023-06-22T10:34:30;28.31;48.02
71175;DHT22;58876;51.994;4.472;2023-06-22T10:36:56;28.41;48.37
71175;DHT22;58876;51.994;4.472;2023-06-22T10:39:21;28.23;47.89
71175;DHT22;58876;51.994;4.472;2023-06-22T10:41:47;28.18;49.15
71175;DHT22;58876;51.994;4.472;2023-06-22T10:44:12;28.27;47.57
71175;DHT22;58876;51.994;4.472;2023-06-22T10:46:39;28.03;49.13
71175;DHT22;58876;51.994;4.472;2023-06-22T10:49:04;28.12;49.09
71175;DHT22;58876;51.994;4.472;2023-06-22T10:51:30;28.14;49.42
71175;DHT22;58876;51.994;4.472;2023-06-22T10:53:56;28.03;47.06
71175;DHT22;58876;51.994;4.472;2023-06-22T10:56:22;28.07;46.02
71175;DHT22;58876;51.994;4.472;2023-06-22T10:58:48;28.04;46.52
71175;DHT22;58876;51.994;4.472;2023-06-22T11:01:13;28.14;46.78
71175;DHT22;58876;51.994;4.472;2023-06-22T11:03:39;28.16;45.82
71175;DHT22;58876;51.994;4.472;2023-06-22T11:06:04;28.12;44.82
71175;DHT22;58876;51.994;4.472;2023-06-22T11:08:30;28.06;45.20
71175;DHT22;58876;51.994;4.472;2023-06-22T11:10:55;28.12;45.97
71175;DHT22;58876;51.994;4.472;2023-06-22T11:13:21;28.24;46.40
71175;DHT22;58876;51.994;4.472;2023-06-22T11:15:46;28.37;47.37
71175;DHT22;58876;51.994;4.472;2023-06-22T11:18:12;28.36;46.67
71175;DHT22;58876;51.994;4.472;2023-06-22T11:20:37;28.40;48.30
71175;DHT22;58876;51.994;4.472;2023-06-22T11:23:06;28.50;47.30
71175;DHT22;58876;51.994;4.472;2023-06-22T11:25:32;28.40;46.07
71175;DHT22;58876;51.994;4.472;2023-06-22T11:28:04;28.45;46.28
71175;DHT22;58876;51.994;4.472;2023-06-22T11:30:30;28.43;46.79
71175;DHT22;58876;51.994;4.472;2023-06-22T11:32:58;28.39;46.60
71175;DHT22;58876;51.994;4.472;2023-06-22T11:35:23;28.21;47.57
71175;DHT22;58876;51.994;4.472;2023-06-22T11:37:48;28.12;47.77
71175;DHT22;58876;51.994;4.472;2023-06-22T11:40:14;27.85;47.56
71175;DHT22;58876;51.994;4.472;2023-06-22T11:42:39;27.83;47.94
71175;DHT22;58876;51.994;4.472;2023-06-22T11:45:06;27.89;48.23
71175;DHT22;58876;51.994;4.472;2023-06-22T11:47:32;27.85;48.91
71175;DHT22;58876;51.994;4.472;2023-06-22T11:49:57;27.85;49.37
71175;DHT22;58876;51.994;4.472;2023-06-22T11:52:22;27.88;49.44
71175;DHT22;58876;51.994;4.472;2023-06-22T11:54:48;27.81;49.60
71175;DHT22;58876;51.994;4.472;2023-06-22T11:57:13;27.86;49.84
71175;DHT22;58876;51.994;4.472;2023-06-22T11:59:39;27.85;50.97
71175;DHT22;58876;51.994;4.472;2023-06-22T12:02:05;27.82;50.92
71175;DHT22;58876;51.994;4.472;2023-06-22T12:04:32;27.66;51.47
71175;DHT22;58876;51.994;4.472;2023-06-22T12:06:58;27.56;52.35
71175;DHT22;58876;51.994;4.472;2023-06-22T12:09:24;27.63;52.58
71175;DHT22;58876;51.994;4.472;2023-06-22T12:11:49;27.61;53.19
71175;DHT22;58876;51.994;4.472;2023-06-22T12:14:15;27.58;53.56
71175;DHT22;58876;51.994;4.472;2023-06-22T12:16:40;27.55;54.49
71175;DHT22;58876;51.994;4.472;2023-06-22T12:19:06;27.54;53.40
71175;DHT22;58876;51.994;4.472;2023-06-22T12:21:31;27.48;52.30
71175;DHT22;58876;51.994;4.472;2023-06-22T12:23:57;27.38;52.92
71175;DHT22;58876;51.994;4.472;2023-06-22T12:26:22;27.25;53.29
71175;DHT22;58876;51.994;4.472;2023-06-22T12:28:48;27.28;53.28
71175;DHT22;58876;51.994;4.472;2023-06-22T12:31:14;27.28;54.20
71175;DHT22;58876;51.994;4.472;2023-06-22T12:33:39;27.11;55.92
71175;DHT22;58876;51.994;4.472;2023-06-22T12:36:05;27.20;55.91
71175;DHT22;58876;51.994;4.472;2023-06-22T12:38:30;27.30;55.69
71175;DHT22;58876;51.994;4.472;2023-06-22T12:40:55;27.27;55.42
71175;DHT22;58876;51.994;4.472;2023-06-22T12:43:21;27.32;55.45
71175;DHT22;58876;51.994;4.472;2023-06-22T12:45:46;27.41;54.95
71175;DHT22;58876;51.994;4.472;2023-06-22T12:48:12;27.37;54.81
71175;DHT22;58876;51.994;4.472;2023-06-22T12:50:38;27.39;55.40
71175;DHT22;58876;51.994;4.472;2023-06-22T12:53:03;27.34;54.57
71175;DHT22;58876;51.994;4.472;2023-06-22T12:55:29;27.35;55.26
71175;DHT22;58876;51.994;4.472;2023-06-22T12:57:55;27.30;55.64
71175;DHT22;58876;51.994;4.472;2023-06-22T13:00:21;27.32;55.23
71175;DHT22;58876;51.994;4.472;2023-06-22T13:02:46;27.15;55.55
71175;DHT22;58876;51.994;4.472;2023-06-22T13:05:12;27.01;56.00
71175;DHT22;58876;51.994;4.472;2023-06-22T13:07:37;27.03;56.71
71175;DHT22;58876;51.994;4.472;2023-06-22T13:10:03;26.88;56.93
71175;DHT22;58876;51.994;4.472;2023-06-22T13:12:29;26.77;57.78
71175;DHT22;58876;51.994;4.472;2023-06-22T13:14:54;26.69;58.54
71175;DHT22;58876;51.994;4.472;2023-06-22T13:17:20;26.63;58.85
71175;DHT22;58876;51.994;4.472;2023-06-22T13:19:46;26.60;59.19
71175;DHT22;58876;51.994;4.472;2023-06-22T13:22:34;26.55;58.72
71175;DHT22;58876;51.994;4.472;2023-06-22T13:25:06;26.33;59.15
71175;DHT22;58876;51.994;4.472;2023-06-22T13:27:32;26.22;59.44
71175;DHT22;58876;51.994;4.472;2023-06-22T13:29:57;26.18;59.43
71175;DHT22;58876;51.994;4.472;2023-06-22T13:32:23;26.28;59.64
71175;DHT22;58876;51.994;4.472;2023-06-22T13:34:48;26.35;59.52
71175;DHT22;58876;51.994;4.472;2023-06-22T13:37:14;26.42;59.79
71175;DHT22;58876;51.994;4.472;2023-06-22T13:39:39;26.46;59.02
71175;DHT22;58876;51.994;4.472;2023-06-22T13:42:05;26.50;58.60
71175;DHT22;58876;51.994;4.472;2023-06-22T13:44:31;26.25;58.81
71175;DHT22;58876;51.994;4.472;2023-06-22T13:46:56;26.12;59.64
71175;DHT22;58876;51.994;4.472;2023-06-22T13:49:22;26.06;60.24
71175;DHT22;58876;51.994;4.472;2023-06-22T13:51:48;26.01;60.05
71175;DHT22;58876;51.994;4.472;2023-06-22T13:54:14;26.04;60.17
71175;DHT22;58876;51.994;4.472;2023-06-22T13:56:40;26.06;60.32
71175;DHT22;58876;51.994;4.472;2023-06-22T13:59:05;26.11;61.01
71175;DHT22;58876;51.994;4.472;2023-06-22T14:01:32;26.11;61.52
71175;DHT22;58876;51.994;4.472;2023-06-22T14:03:58;26.12;61.27
71175;DHT22;58876;51.994;4.472;2023-06-22T14:06:23;26.11;61.39
71175;DHT22;58876;51.994;4.472;2023-06-22T14:08:49;25.99;61.76
71175;DHT22;58876;51.994;4.472;2023-06-22T14:11:16;25.91;62.75
71175;DHT22;58876;51.994;4.472;2023-06-22T14:13:41;25.77;63.11
71175;DHT22;58876;51.994;4.472;2023-06-22T14:16:08;25.80;63.22
71175;DHT22;58876;51.994;4.472;2023-06-22T14:18:33;25.87;63.22
71175;DHT22;58876;51.994;4.472;2023-06-22T14:20:59;25.80;63.41
71175;DHT22;58876;51.994;4.472;2023-06-22T14:23:24;25.73;63.71
71175;DHT22;58876;51.994;4.472;2023-06-22T14:25:50;25.66;64.92
71175;DHT22;58876;51.994;4.472;2023-06-22T14:28:15;25.66;64.92
71175;DHT22;58876;51.994;4.472;2023-06-22T14:30:42;25.74;64.93
71175;DHT22;58876;51.994;4.472;2023-06-22T14:33:07;25.80;65.35
71175;DHT22;58876;51.994;4.472;2023-06-22T14:35:33;25.73;65.67
71175;DHT22;58876;51.994;4.472;2023-06-22T14:37:58;25.70;65.61
71175;DHT22;58876;51.994;4.472;2023-06-22T14:40:24;25.70;66.09
71175;DHT22;58876;51.994;4.472;2023-06-22T14:42:49;25.64;66.87
71175;DHT22;58876;51.994;4.472;2023-06-22T14:45:15;25.48;67.60
71175;DHT22;58876;51.994;4.472;2023-06-22T14:47:40;25.37;67.45
71175;DHT22;58876;51.994;4.472;2023-06-22T14:50:06;25.34;68.40
71175;DHT22;58876;51.994;4.472;2023-06-22T14:52:31;25.30;68.37
71175;DHT22;58876;51.994;4.472;2023-06-22T14:54:57;25.20;68.44
71175;DHT22;58876;51.994;4.472;2023-06-22T14:57:22;25.06;68.79
71175;DHT22;58876;51.994;4.472;2023-06-22T14:59:49;24.96;69.10
71175;DHT22;58876;51.994;4.472;2023-06-22T15:02:14;24.89;69.07
71175;DHT22;58876;51.994;4.472;2023-06-22T15:04:40;24.82;70.30
71175;DHT22;58876;51.994;4.472;2023-06-22T15:07:06;24.75;70.85
71175;DHT22;58876;51.994;4.472;2023-06-22T15:09:31;24.71;70.05
71175;DHT22;58876;51.994;4.472;2023-06-22T15:11:59;24.67;69.83
71175;DHT22;58876;51.994;4.472;2023-06-22T15:14:27;24.54;69.26
71175;DHT22;58876;51.994;4.472;2023-06-22T15:16:53;24.35;68.34
71175;DHT22;58876;51.994;4.472;2023-06-22T15:19:19;24.20;69.37
71175;DHT22;58876;51.994;4.472;2023-06-22T15:21:44;24.09;70.53
71175;DHT22;58876;51.994;4.472;2023-06-22T15:24:11;24.07;70.42
71175;DHT22;58876;51.994;4.472;2023-06-22T15:26:36;23.94;70.39
71175;DHT22;58876;51.994;4.472;2023-06-22T15:29:02;23.79;69.77
71175;DHT22;58876;51.994;4.472;2023-06-22T15:31:27;23.70;70.37
71175;DHT22;58876;51.994;4.472;2023-06-22T15:33:53;23.63;70.65
71175;DHT22;58876;51.994;4.472;2023-06-22T15:36:18;23.58;70.13